Terminal Aerodrome Forecast
Issued by NWS Sterling, VA

Current Version | Previous Version | Text Only | Print | Product List | Glossary Off
Versions: 1 2 3 4 5 6 7 8 9 10 11 12 13 14 15 16 17 18 19 20 21 22 23

728
FTUS41 KLWX 200857 AAA
TAFIAD
TAF AMD
KIAD 200857Z 2009/2112 02006KT P6SM SCT050 BKN100
     FM201200 03010KT P6SM BKN025
     FM201500 06006KT P6SM OVC020
     FM202000 10008KT P6SM BKN020
     FM202300 11008KT P6SM BKN035=

USA.gov is the U.S. government's official web portal to all federal, state and local government web resources and services.